Terminal Aerodrome Forecast
Issued by NWS

Current Version | Previous Version | Text Only | Print | Product List | Glossary On
Versions: 1 2 3 4 5 6 7 8 9 10 11 12 13 14 15 16 17 18 19 20 21 22 23 24 25
000
FTUS43 KGRR 160004 AAA
TAFAZO
TAF AMD
KAZO 160004Z 1600/1624 21005KT P6SM SCT027 BKN040 OVC060
     FM160200 20004KT 2SM -SN OVC015
     FM160900 21005KT 3SM BR OVC015
     FM161500 VRB04KT 4SM BR OVC035=

USA.gov is the U.S. government's official web portal to all federal, state and local government web resources and services.